sensor_id;sensor_type;location;lat;lon;timestamp;pressure;altitude;pressure_sealevel;temperature;humidity
9059;BME280;4564;42.034;25.834;2024-02-14T00:02:02;99767.22;;;9.75;94.28
9059;BME280;4564;42.034;25.834;2024-02-14T00:04:30;99772.56;;;9.68;94.61
9059;BME280;4564;42.034;25.834;2024-02-14T00:06:56;99771.13;;;9.73;94.45
9059;BME280;4564;42.034;25.834;2024-02-14T00:09:23;99770.50;;;9.71;93.83
9059;BME280;4564;42.034;25.834;2024-02-14T00:11:51;99774.59;;;9.66;94.13
9059;BME280;4564;42.034;25.834;2024-02-14T00:14:18;99774.59;;;9.66;94.44
9059;BME280;4564;42.034;25.834;2024-02-14T00:16:45;99779.41;;;9.64;94.44
9059;BME280;4564;42.034;25.834;2024-02-14T00:19:12;99782.47;;;9.61;95.31
9059;BME280;4564;42.034;25.834;2024-02-14T00:21:38;99784.41;;;9.67;96.03
9059;BME280;4564;42.034;25.834;2024-02-14T00:24:05;99783.78;;;9.65;95.86
9059;BME280;4564;42.034;25.834;2024-02-14T00:26:32;99786.69;;;9.64;95.88
9059;BME280;4564;42.034;25.834;2024-02-14T00:29:00;99784.81;;;9.64;96.35
9059;BME280;4564;42.034;25.834;2024-02-14T00:31:27;99789.22;;;9.65;96.64
9059;BME280;4564;42.034;25.834;2024-02-14T00:33:54;99788.13;;;9.60;96.35
9059;BME280;4564;42.034;25.834;2024-02-14T00:36:21;99783.06;;;9.57;96.21
9059;BME280;4564;42.034;25.834;2024-02-14T00:38:48;99793.31;;;9.61;95.98
9059;BME280;4564;42.034;25.834;2024-02-14T00:41:14;99792.94;;;9.64;95.79
9059;BME280;4564;42.034;25.834;2024-02-14T00:43:41;99788.69;;;9.55;95.61
9059;BME280;4564;42.034;25.834;2024-02-14T00:46:09;99789.41;;;9.64;95.10
9059;BME280;4564;42.034;25.834;2024-02-14T00:48:36;99794.22;;;9.68;94.74
9059;BME280;4564;42.034;25.834;2024-02-14T00:51:02;99798.09;;;9.59;95.31
9059;BME280;4564;42.034;25.834;2024-02-14T00:53:29;99797.09;;;9.60;95.23
9059;BME280;4564;42.034;25.834;2024-02-14T00:55:56;99797.09;;;9.60;94.87
9059;BME280;4564;42.034;25.834;2024-02-14T00:58:22;99797.00;;;9.54;94.77
9059;BME280;4564;42.034;25.834;2024-02-14T01:00:49;99792.19;;;9.49;94.99
9059;BME280;4564;42.034;25.834;2024-02-14T01:03:17;99792.81;;;9.51;95.45
9059;BME280;4564;42.034;25.834;2024-02-14T01:05:43;99799.72;;;9.54;95.17
9059;BME280;4564;42.034;25.834;2024-02-14T01:08:10;99789.22;;;9.44;95.49
9059;BME280;4564;42.034;25.834;2024-02-14T01:10:38;99794.41;;;9.46;95.09
9059;BME280;4564;42.034;25.834;2024-02-14T01:13:04;99790.50;;;9.48;95.27
9059;BME280;4564;42.034;25.834;2024-02-14T01:15:31;99798.03;;;9.53;95.17
9059;BME280;4564;42.034;25.834;2024-02-14T01:17:58;99790.75;;;9.53;94.55
9059;BME280;4564;42.034;25.834;2024-02-14T01:20:26;99794.94;;;9.56;94.43
9059;BME280;4564;42.034;25.834;2024-02-14T01:22:53;99792.63;;;9.53;94.40
9059;BME280;4564;42.034;25.834;2024-02-14T01:25:19;99794.38;;;9.39;94.89
9059;BME280;4564;42.034;25.834;2024-02-14T01:27:46;99787.63;;;9.35;95.76
9059;BME280;4564;42.034;25.834;2024-02-14T01:30:15;99789.72;;;9.33;95.43
9059;BME280;4564;42.034;25.834;2024-02-14T01:32:42;99803.25;;;9.33;95.96
9059;BME280;4564;42.034;25.834;2024-02-14T01:35:08;99802.59;;;9.31;95.79
9059;BME280;4564;42.034;25.834;2024-02-14T01:37:37;99800.28;;;9.28;96.56
9059;BME280;4564;42.034;25.834;2024-02-14T01:40:04;99811.56;;;9.32;96.93
9059;BME280;4564;42.034;25.834;2024-02-14T01:42:32;99805.13;;;9.33;96.60
9059;BME280;4564;42.034;25.834;2024-02-14T01:44:59;99808.13;;;9.23;96.90
9059;BME280;4564;42.034;25.834;2024-02-14T01:47:25;99806.72;;;9.12;97.31
9059;BME280;4564;42.034;25.834;2024-02-14T01:49:53;99802.81;;;9.15;97.46
9059;BME280;4564;42.034;25.834;2024-02-14T01:52:19;99809.75;;;9.17;97.67
9059;BME280;4564;42.034;25.834;2024-02-14T01:54:48;99813.34;;;9.24;97.20
9059;BME280;4564;42.034;25.834;2024-02-14T01:57:15;99811.47;;;9.25;97.10
9059;BME280;4564;42.034;25.834;2024-02-14T01:59:42;99810.84;;;9.23;96.99
9059;BME280;4564;42.034;25.834;2024-02-14T02:02:08;99815.03;;;9.25;97.06
9059;BME280;4564;42.034;25.834;2024-02-14T02:04:35;99812.22;;;9.19;96.67
9059;BME280;4564;42.034;25.834;2024-02-14T02:07:04;99808.31;;;9.21;96.35
9059;BME280;4564;42.034;25.834;2024-02-14T02:09:30;99811.47;;;9.25;96.34
9059;BME280;4564;42.034;25.834;2024-02-14T02:11:59;99810.38;;;9.19;96.28
9059;BME280;4564;42.034;25.834;2024-02-14T02:14:26;99807.09;;;9.24;96.13
9059;BME280;4564;42.034;25.834;2024-02-14T02:16:53;99812.63;;;9.16;95.98
9059;BME280;4564;42.034;25.834;2024-02-14T02:19:20;99817.88;;;9.17;96.81
9059;BME280;4564;42.034;25.834;2024-02-14T02:21:47;99816.81;;;9.18;95.95
9059;BME280;4564;42.034;25.834;2024-02-14T02:24:15;99819.34;;;9.20;95.40
9059;BME280;4564;42.034;25.834;2024-02-14T02:26:41;99825.84;;;9.25;95.75
9059;BME280;4564;42.034;25.834;2024-02-14T02:29:09;99821.16;;;9.34;95.22
9059;BME280;4564;42.034;25.834;2024-02-14T02:31:36;99838.72;;;9.38;93.95
9059;BME280;4564;42.034;25.834;2024-02-14T02:34:04;99830.44;;;9.25;93.79
9059;BME280;4564;42.034;25.834;2024-02-14T02:36:30;99838.72;;;9.23;94.03
9059;BME280;4564;42.034;25.834;2024-02-14T02:38:57;99839.13;;;9.20;94.73
9059;BME280;4564;42.034;25.834;2024-02-14T02:41:27;99843.50;;;9.21;94.66
9059;BME280;4564;42.034;25.834;2024-02-14T02:43:53;99849.78;;;9.22;94.46
9059;BME280;4564;42.034;25.834;2024-02-14T02:46:20;99840.41;;;9.24;94.27
9059;BME280;4564;42.034;25.834;2024-02-14T02:48:48;99852.09;;;9.25;93.98
9059;BME280;4564;42.034;25.834;2024-02-14T02:51:16;99852.09;;;9.25;94.75
9059;BME280;4564;42.034;25.834;2024-02-14T02:53:42;99858.78;;;9.29;94.90
9059;BME280;4564;42.034;25.834;2024-02-14T02:56:09;99849.81;;;9.28;94.14
9059;BME280;4564;42.034;25.834;2024-02-14T02:58:38;99855.47;;;9.27;94.41
9059;BME280;4564;42.034;25.834;2024-02-14T03:01:07;99858.34;;;9.25;94.29
9059;BME280;4564;42.034;25.834;2024-02-14T03:03:33;99861.22;;;9.24;94.27
9059;BME280;4564;42.034;25.834;2024-02-14T03:06:01;99872.06;;;9.24;93.44
9059;BME280;4564;42.034;25.834;2024-02-14T03:08:28;99867.22;;;9.19;93.55
9059;BME280;4564;42.034;25.834;2024-02-14T03:10:55;99868.72;;;9.22;93.41
9059;BME280;4564;42.034;25.834;2024-02-14T03:13:24;99861.72;;;9.27;93.67
9059;BME280;4564;42.034;25.834;2024-02-14T03:15:53;99869.56;;;9.22;93.95
9059;BME280;4564;42.034;25.834;2024-02-14T03:18:21;99875.44;;;9.26;93.74
9059;BME280;4564;42.034;25.834;2024-02-14T03:20:48;99880.66;;;9.27;93.43
9059;BME280;4564;42.034;25.834;2024-02-14T03:23:15;99874.41;;;9.27;93.21
9059;BME280;4564;42.034;25.834;2024-02-14T03:25:41;99882.13;;;9.30;93.01
9059;BME280;4564;42.034;25.834;2024-02-14T03:28:08;99880.44;;;9.29;93.02
9059;BME280;4564;42.034;25.834;2024-02-14T03:30:35;99879.25;;;9.32;92.86
9059;BME280;4564;42.034;25.834;2024-02-14T03:33:03;99885.03;;;9.28;93.24
9059;BME280;4564;42.034;25.834;2024-02-14T03:35:29;99884.97;;;9.22;93.02
9059;BME280;4564;42.034;25.834;2024-02-14T03:37:56;99890.56;;;9.20;92.69
9059;BME280;4564;42.034;25.834;2024-02-14T03:40:23;99890.16;;;9.23;92.05
9059;BME280;4564;42.034;25.834;2024-02-14T03:42:50;99887.72;;;9.28;91.98
9059;BME280;4564;42.034;25.834;2024-02-14T03:45:16;99891.69;;;9.26;91.66
9059;BME280;4564;42.034;25.834;2024-02-14T03:47:43;99889.53;;;9.21;91.59
9059;BME280;4564;42.034;25.834;2024-02-14T03:50:11;99888.69;;;9.21;92.07
9059;BME280;4564;42.034;25.834;2024-02-14T03:52:38;99896.81;;;9.21;92.37
9059;BME280;4564;42.034;25.834;2024-02-14T03:55:05;99899.13;;;9.24;92.21
9059;BME280;4564;42.034;25.834;2024-02-14T03:57:32;99894.19;;;9.27;91.60
9059;BME280;4564;42.034;25.834;2024-02-14T04:00:00;99898.69;;;9.20;92.22
9059;BME280;4564;42.034;25.834;2024-02-14T04:02:27;99896.16;;;9.19;92.49
9059;BME280;4564;42.034;25.834;2024-02-14T04:04:54;99899.88;;;9.18;92.50
9059;BME280;4564;42.034;25.834;2024-02-14T04:07:22;99902.22;;;9.21;92.22
9059;BME280;4564;42.034;25.834;2024-02-14T04:09:49;99907.66;;;9.21;92.34
9059;BME280;4564;42.034;25.834;2024-02-14T04:12:16;99907.81;;;9.19;92.34
9059;BME280;4564;42.034;25.834;2024-02-14T04:14:42;99917.44;;;9.22;92.59
9059;BME280;4564;42.034;25.834;2024-02-14T04:17:09;99916.22;;;9.24;92.61
9059;BME280;4564;42.034;25.834;2024-02-14T04:19:36;99911.19;;;9.21;92.51
9059;BME280;4564;42.034;25.834;2024-02-14T04:22:03;99924.91;;;9.20;92.66
9059;BME280;4564;42.034;25.834;2024-02-14T04:24:34;99920.16;;;9.22;93.17
9059;BME280;4564;42.034;25.834;2024-02-14T04:27:00;99920.34;;;9.20;93.12
9059;BME280;4564;42.034;25.834;2024-02-14T04:29:28;99925.31;;;9.17;93.42
9059;BME280;4564;42.034;25.834;2024-02-14T04:31:55;99920.72;;;9.17;92.89
9059;BME280;4564;42.034;25.834;2024-02-14T04:34:22;99930.50;;;9.18;92.96
9059;BME280;4564;42.034;25.834;2024-02-14T04:36:48;99938.09;;;9.23;93.04
9059;BME280;4564;42.034;25.834;2024-02-14T04:39:15;99934.72;;;9.21;92.16
9059;BME280;4564;42.034;25.834;2024-02-14T04:41:43;99936.41;;;9.22;92.01
9059;BME280;4564;42.034;25.834;2024-02-14T04:44:09;99940.50;;;9.18;92.05
9059;BME280;4564;42.034;25.834;2024-02-14T04:46:36;99939.19;;;9.14;91.80
9059;BME280;4564;42.034;25.834;2024-02-14T04:49:08;99944.78;;;9.12;92.05
9059;BME280;4564;42.034;25.834;2024-02-14T04:51:36;99950.31;;;9.04;92.11
9059;BME280;4564;42.034;25.834;2024-02-14T04:54:02;99944.88;;;9.04;92.91
9059;BME280;4564;42.034;25.834;2024-02-14T04:56:30;99953.00;;;9.04;92.60
9059;BME280;4564;42.034;25.834;2024-02-14T04:58:58;99955.03;;;9.02;92.28
9059;BME280;4564;42.034;25.834;2024-02-14T05:01:24;99960.47;;;9.02;92.09
9059;BME280;4564;42.034;25.834;2024-02-14T05:03:51;99959.63;;;9.02;92.46
9059;BME280;4564;42.034;25.834;2024-02-14T05:06:17;99963.00;;;9.04;91.83
9059;BME280;4564;42.034;25.834;2024-02-14T05:08:44;99965.03;;;9.02;91.86
9059;BME280;4564;42.034;25.834;2024-02-14T05:11:10;99967.75;;;9.02;92.32
9059;BME280;4564;42.034;25.834;2024-02-14T05:13:37;99973.16;;;9.02;92.00
9059;BME280;4564;42.034;25.834;2024-02-14T05:16:08;99966.38;;;9.06;92.29
9059;BME280;4564;42.034;25.834;2024-02-14T05:18:35;99974.75;;;9.11;91.85
9059;BME280;4564;42.034;25.834;2024-02-14T05:21:04;99976.47;;;9.12;92.27
9059;BME280;4564;42.034;25.834;2024-02-14T05:23:31;99986.22;;;9.13;92.78
9059;BME280;4564;42.034;25.834;2024-02-14T05:25:57;99985.59;;;9.11;92.14
9059;BME280;4564;42.034;25.834;2024-02-14T05:28:24;99992.59;;;9.05;92.03
9059;BME280;4564;42.034;25.834;2024-02-14T05:30:51;99992.75;;;9.04;92.69
9059;BME280;4564;42.034;25.834;2024-02-14T05:33:19;100000.31;;;9.08;92.34
9059;BME280;4564;42.034;25.834;2024-02-14T05:35:47;99993.44;;;9.06;92.79
9059;BME280;4564;42.034;25.834;2024-02-14T05:38:15;100001.56;;;9.06;93.07
9059;BME280;4564;42.034;25.834;2024-02-14T05:40:41;100009.28;;;9.09;92.87
9059;BME280;4564;42.034;25.834;2024-02-14T05:43:09;100017.50;;;9.01;92.79
9059;BME280;4564;42.034;25.834;2024-02-14T05:45:35;100019.81;;;9.04;93.39
9059;BME280;4564;42.034;25.834;2024-02-14T05:48:02;100021.81;;;9.10;92.87
9059;BME280;4564;42.034;25.834;2024-02-14T05:50:31;100030.22;;;9.15;92.73
9059;BME280;4564;42.034;25.834;2024-02-14T05:52:57;100029.53;;;9.13;93.13
9059;BME280;4564;42.034;25.834;2024-02-14T05:55:24;100035.34;;;9.10;92.48
9059;BME280;4564;42.034;25.834;2024-02-14T05:57:51;100038.44;;;9.07;92.92
9059;BME280;4564;42.034;25.834;2024-02-14T06:00:18;100047.19;;;9.09;93.35
9059;BME280;4564;42.034;25.834;2024-02-14T06:02:45;100051.19;;;9.13;93.41
9059;BME280;4564;42.034;25.834;2024-02-14T06:05:12;100050.84;;;9.16;92.51
9059;BME280;4564;42.034;25.834;2024-02-14T06:07:40;100052.88;;;9.14;92.58
9059;BME280;4564;42.034;25.834;2024-02-14T06:10:08;100053.81;;;9.06;92.69
9059;BME280;4564;42.034;25.834;2024-02-14T06:12:34;100055.97;;;9.11;92.76
9059;BME280;4564;42.034;25.834;2024-02-14T06:15:01;100060.44;;;9.18;93.10
9059;BME280;4564;42.034;25.834;2024-02-14T06:17:28;100059.59;;;9.18;92.98
9059;BME280;4564;42.034;25.834;2024-02-14T06:19:55;100073.25;;;9.24;92.68
9059;BME280;4564;42.034;25.834;2024-02-14T06:22:22;100065.97;;;9.25;91.87
9059;BME280;4564;42.034;25.834;2024-02-14T06:24:50;100067.00;;;9.24;92.91
9059;BME280;4564;42.034;25.834;2024-02-14T06:27:16;100074.22;;;9.32;91.67
9059;BME280;4564;42.034;25.834;2024-02-14T06:29:43;100077.09;;;9.30;92.36
9059;BME280;4564;42.034;25.834;2024-02-14T06:34:36;100071.97;;;9.35;92.70
9059;BME280;4564;42.034;25.834;2024-02-14T06:37:03;100082.72;;;9.43;92.46
9059;BME280;4564;42.034;25.834;2024-02-14T06:39:30;100083.75;;;9.57;92.11
9059;BME280;4564;42.034;25.834;2024-02-14T06:41:58;100087.97;;;9.59;91.55
9059;BME280;4564;42.034;25.834;2024-02-14T06:44:24;100086.94;;;9.60;91.51
9059;BME280;4564;42.034;25.834;2024-02-14T06:46:51;100079.72;;;9.67;91.53
9059;BME280;4564;42.034;25.834;2024-02-14T06:49:17;100086.94;;;9.75;90.81
9059;BME280;4564;42.034;25.834;2024-02-14T06:51:44;100092.91;;;9.85;90.89
9059;BME280;4564;42.034;25.834;2024-02-14T06:54:11;100093.19;;;9.90;90.61
9059;BME280;4564;42.034;25.834;2024-02-14T06:56:38;100096.53;;;10.07;90.03
9059;BME280;4564;42.034;25.834;2024-02-14T06:59:06;100099.13;;;10.15;88.70
9059;BME280;4564;42.034;25.834;2024-02-14T07:01:33;100105.78;;;10.13;87.95
9059;BME280;4564;42.034;25.834;2024-02-14T07:04:00;100103.56;;;10.16;88.11
9059;BME280;4564;42.034;25.834;2024-02-14T07:06:26;100102.53;;;10.17;87.77
9059;BME280;4564;42.034;25.834;2024-02-14T07:08:53;100106.09;;;10.18;87.39
9059;BME280;4564;42.034;25.834;2024-02-14T07:11:19;100113.47;;;10.24;87.83
9059;BME280;4564;42.034;25.834;2024-02-14T07:13:46;100125.03;;;10.32;86.62
9059;BME280;4564;42.034;25.834;2024-02-14T07:16:14;100127.56;;;10.34;86.90
9059;BME280;4564;42.034;25.834;2024-02-14T07:18:41;100134.13;;;10.39;86.91
9059;BME280;4564;42.034;25.834;2024-02-14T07:21:07;100132.69;;;10.43;85.96
9059;BME280;4564;42.034;25.834;2024-02-14T07:23:34;100130.38;;;10.40;86.73
9059;BME280;4564;42.034;25.834;2024-02-14T07:26:01;100137.53;;;10.48;86.10
9059;BME280;4564;42.034;25.834;2024-02-14T07:28:27;100140.47;;;10.46;86.69
9059;BME280;4564;42.034;25.834;2024-02-14T07:30:54;100140.84;;;10.43;85.94
9059;BME280;4564;42.034;25.834;2024-02-14T07:33:22;100139.91;;;10.51;86.27
9059;BME280;4564;42.034;25.834;2024-02-14T07:35:49;100141.91;;;10.64;85.40
9059;BME280;4564;42.034;25.834;2024-02-14T07:38:16;100150.97;;;10.71;85.03
9059;BME280;4564;42.034;25.834;2024-02-14T07:40:43;100155.75;;;10.69;84.93
9059;BME280;4564;42.034;25.834;2024-02-14T07:43:09;100154.84;;;10.62;84.91
9059;BME280;4564;42.034;25.834;2024-02-14T07:45:36;100159.88;;;10.65;85.81
9059;BME280;4564;42.034;25.834;2024-02-14T07:48:03;100166.22;;;10.72;85.34
9059;BME280;4564;42.034;25.834;2024-02-14T07:50:31;100166.09;;;10.80;84.53
9059;BME280;4564;42.034;25.834;2024-02-14T07:52:58;100170.75;;;10.86;84.32
9059;BME280;4564;42.034;25.834;2024-02-14T07:55:24;100176.25;;;10.92;83.95
9059;BME280;4564;42.034;25.834;2024-02-14T07:57:51;100177.50;;;10.90;84.20
9059;BME280;4564;42.034;25.834;2024-02-14T08:00:19;100185.19;;;10.86;84.53
9059;BME280;4564;42.034;25.834;2024-02-14T08:02:47;100175.94;;;10.81;85.77
9059;BME280;4564;42.034;25.834;2024-02-14T08:05:14;100188.03;;;10.78;86.46
9059;BME280;4564;42.034;25.834;2024-02-14T08:07:43;100184.28;;;10.65;87.26
9059;BME280;4564;42.034;25.834;2024-02-14T08:10:10;100194.56;;;10.69;87.60
9059;BME280;4564;42.034;25.834;2024-02-14T08:12:37;100187.53;;;10.89;87.19
9059;BME280;4564;42.034;25.834;2024-02-14T08:15:03;100192.06;;;11.04;87.80
9059;BME280;4564;42.034;25.834;2024-02-14T08:17:31;100201.81;;;11.19;87.80
9059;BME280;4564;42.034;25.834;2024-02-14T08:19:58;100194.69;;;11.18;87.02
9059;BME280;4564;42.034;25.834;2024-02-14T08:22:25;100197.94;;;11.07;87.73
9059;BME280;4564;42.034;25.834;2024-02-14T08:24:53;100197.81;;;10.94;89.50
9059;BME280;4564;42.034;25.834;2024-02-14T08:27:21;100194.56;;;10.84;88.84
9059;BME280;4564;42.034;25.834;2024-02-14T08:29:47;100200.94;;;10.76;90.23
9059;BME280;4564;42.034;25.834;2024-02-14T08:32:14;100202.53;;;10.71;90.46
9059;BME280;4564;42.034;25.834;2024-02-14T08:34:40;100201.81;;;10.62;90.40
9059;BME280;4564;42.034;25.834;2024-02-14T08:37:07;100204.41;;;10.70;91.22
9059;BME280;4564;42.034;25.834;2024-02-14T08:39:35;100210.56;;;10.79;91.19
9059;BME280;4564;42.034;25.834;2024-02-14T08:42:04;100217.31;;;10.83;90.97
9059;BME280;4564;42.034;25.834;2024-02-14T08:44:32;100226.03;;;10.78;90.74
9059;BME280;4564;42.034;25.834;2024-02-14T08:46:59;100222.19;;;10.73;91.47
9059;BME280;4564;42.034;25.834;2024-02-14T08:49:28;100219.34;;;10.81;91.23
9059;BME280;4564;42.034;25.834;2024-02-14T08:51:55;100226.81;;;10.93;91.46
9059;BME280;4564;42.034;25.834;2024-02-14T08:54:22;100222.34;;;10.86;91.52
9059;BME280;4564;42.034;25.834;2024-02-14T08:56:49;100235.16;;;10.92;91.26
9059;BME280;4564;42.034;25.834;2024-02-14T08:59:19;100233.72;;;10.96;91.31
9059;BME280;4564;42.034;25.834;2024-02-14T09:01:46;100231.75;;;11.05;92.47
9059;BME280;4564;42.034;25.834;2024-02-14T09:04:13;100236.44;;;11.11;91.41
9059;BME280;4564;42.034;25.834;2024-02-14T09:06:40;100244.72;;;10.88;91.53
9059;BME280;4564;42.034;25.834;2024-02-14T09:09:07;100246.59;;;10.87;91.94
9059;BME280;4564;42.034;25.834;2024-02-14T09:11:35;100238.63;;;10.86;93.32
9059;BME280;4564;42.034;25.834;2024-02-14T09:14:02;100243.28;;;10.92;92.05
9059;BME280;4564;42.034;25.834;2024-02-14T09:16:33;100239.91;;;11.05;92.76
9059;BME280;4564;42.034;25.834;2024-02-14T09:18:59;100234.81;;;11.16;94.63
9059;BME280;4564;42.034;25.834;2024-02-14T09:21:26;100240.94;;;11.25;93.47
9059;BME280;4564;42.034;25.834;2024-02-14T09:23:53;100233.19;;;11.22;94.79
9059;BME280;4564;42.034;25.834;2024-02-14T09:26:20;100236.53;;;11.24;95.51
9059;BME280;4564;42.034;25.834;2024-02-14T09:28:47;100247.88;;;11.27;95.55
9059;BME280;4564;42.034;25.834;2024-02-14T09:31:17;100239.16;;;11.32;94.34
9059;BME280;4564;42.034;25.834;2024-02-14T09:33:46;100246.38;;;11.46;92.39
9059;BME280;4564;42.034;25.834;2024-02-14T09:36:14;100244.59;;;11.32;90.79
9059;BME280;4564;42.034;25.834;2024-02-14T09:38:41;100242.47;;;11.27;91.14
9059;BME280;4564;42.034;25.834;2024-02-14T09:41:11;100233.53;;;11.33;89.37
9059;BME280;4564;42.034;25.834;2024-02-14T09:43:38;100236.19;;;11.27;89.00
9059;BME280;4564;42.034;25.834;2024-02-14T09:46:06;100228.16;;;11.40;91.25
9059;BME280;4564;42.034;25.834;2024-02-14T09:48:33;100230.00;;;11.40;88.76
9059;BME280;4564;42.034;25.834;2024-02-14T09:51:02;100227.75;;;11.64;88.98
9059;BME280;4564;42.034;25.834;2024-02-14T09:53:28;100229.31;;;11.73;88.84
9059;BME280;4564;42.034;25.834;2024-02-14T09:55:55;100229.69;;;11.92;85.71
9059;BME280;4564;42.034;25.834;2024-02-14T09:58:22;100224.31;;;11.98;81.29
9059;BME280;4564;42.034;25.834;2024-02-14T10:00:50;100219.78;;;11.84;84.19
9059;BME280;4564;42.034;25.834;2024-02-14T10:03:16;100220.38;;;11.80;83.54
9059;BME280;4564;42.034;25.834;2024-02-14T10:05:43;100219.91;;;11.97;83.43
9059;BME280;4564;42.034;25.834;2024-02-14T10:08:11;100211.44;;;12.13;83.79
9059;BME280;4564;42.034;25.834;2024-02-14T10:10:38;100210.28;;;12.01;80.78
9059;BME280;4564;42.034;25.834;2024-02-14T10:13:05;100211.75;;;12.04;79.72
9059;BME280;4564;42.034;25.834;2024-02-14T10:15:32;100218.94;;;12.11;81.08
9059;BME280;4564;42.034;25.834;2024-02-14T10:17:58;100213.94;;;12.15;79.17
9059;BME280;4564;42.034;25.834;2024-02-14T10:20:26;100202.94;;;11.95;81.73
9059;BME280;4564;42.034;25.834;2024-02-14T10:23:00;100214.78;;;12.15;81.85
9059;BME280;4564;42.034;25.834;2024-02-14T10:25:28;100221.16;;;12.29;79.74
9059;BME280;4564;42.034;25.834;2024-02-14T10:27:56;100209.25;;;12.37;79.62
9059;BME280;4564;42.034;25.834;2024-02-14T10:30:23;100223.28;;;12.34;75.51
9059;BME280;4564;42.034;25.834;2024-02-14T10:32:50;100215.88;;;11.93;77.65
9059;BME280;4564;42.034;25.834;2024-02-14T10:35:16;100218.03;;;11.98;79.40
9059;BME280;4564;42.034;25.834;2024-02-14T10:37:46;100224.50;;;11.97;77.85
9059;BME280;4564;42.034;25.834;2024-02-14T10:40:13;100216.72;;;11.94;77.01
9059;BME280;4564;42.034;25.834;2024-02-14T10:42:41;100218.88;;;12.05;78.00
9059;BME280;4564;42.034;25.834;2024-02-14T10:45:08;100219.72;;;12.05;78.17
9059;BME280;4564;42.034;25.834;2024-02-14T10:47:35;100228.13;;;12.10;75.22
9059;BME280;4564;42.034;25.834;2024-02-14T10:50:03;100223.34;;;12.12;75.53
9059;BME280;4564;42.034;25.834;2024-02-14T10:52:31;100223.22;;;12.27;76.59
9059;BME280;4564;42.034;25.834;2024-02-14T10:54:58;100230.00;;;12.10;75.46
9059;BME280;4564;42.034;25.834;2024-02-14T10:57:25;100229.50;;;12.28;76.94
9059;BME280;4564;42.034;25.834;2024-02-14T10:59:55;100222.28;;;12.48;77.75
9059;BME280;4564;42.034;25.834;2024-02-14T11:02:23;100228.03;;;12.66;76.20
9059;BME280;4564;42.034;25.834;2024-02-14T11:04:49;100232.69;;;12.72;74.55
9059;BME280;4564;42.034;25.834;2024-02-14T11:07:19;100228.03;;;12.66;76.11
9059;BME280;4564;42.034;25.834;2024-02-14T11:09:48;100228.34;;;12.84;76.46
9059;BME280;4564;42.034;25.834;2024-02-14T11:12:15;100218.53;;;12.96;76.43
9059;BME280;4564;42.034;25.834;2024-02-14T11:14:42;100222.69;;;12.86;76.33
9059;BME280;4564;42.034;25.834;2024-02-14T11:17:12;100223.13;;;12.89;74.49
9059;BME280;4564;42.034;25.834;2024-02-14T11:19:38;100218.13;;;12.99;75.11
9059;BME280;4564;42.034;25.834;2024-02-14T11:22:12;100221.59;;;12.80;75.62
9059;BME280;4564;42.034;25.834;2024-02-14T11:24:39;100214.53;;;12.92;76.01
9059;BME280;4564;42.034;25.834;2024-02-14T11:27:09;100213.13;;;13.10;73.74
9059;BME280;4564;42.034;25.834;2024-02-14T11:29:38;100216.38;;;12.79;70.47
9059;BME280;4564;42.034;25.834;2024-02-14T11:32:05;100220.44;;;12.55;70.62
9059;BME280;4564;42.034;25.834;2024-02-14T11:34:35;100222.19;;;12.69;74.16
9059;BME280;4564;42.034;25.834;2024-02-14T11:37:01;100222.19;;;12.69;72.56
9059;BME280;4564;42.034;25.834;2024-02-14T11:39:29;100221.47;;;12.95;71.35
9059;BME280;4564;42.034;25.834;2024-02-14T11:41:56;100216.00;;;12.88;70.89
9059;BME280;4564;42.034;25.834;2024-02-14T11:44:24;100219.34;;;12.90;71.98
9059;BME280;4564;42.034;25.834;2024-02-14T11:46:51;100221.00;;;12.85;71.78
9059;BME280;4564;42.034;25.834;2024-02-14T11:49:18;100221.38;;;12.75;72.14
9059;BME280;4564;42.034;25.834;2024-02-14T11:51:47;100222.94;;;12.97;73.47
9059;BME280;4564;42.034;25.834;2024-02-14T11:54:14;100226.09;;;13.08;69.71
9059;BME280;4564;42.034;25.834;2024-02-14T11:56:40;100228.22;;;13.06;71.07
9059;BME280;4564;42.034;25.834;2024-02-14T11:59:07;100229.56;;;12.82;71.13
9059;BME280;4564;42.034;25.834;2024-02-14T12:01:35;100232.13;;;12.90;70.72
9059;BME280;4564;42.034;25.834;2024-02-14T12:04:04;100224.56;;;12.85;70.65
9059;BME280;4564;42.034;25.834;2024-02-14T12:06:32;100235.34;;;12.59;70.37
9059;BME280;4564;42.034;25.834;2024-02-14T12:09:02;100234.88;;;12.49;69.57
9059;BME280;4564;42.034;25.834;2024-02-14T12:11:30;100233.97;;;12.42;71.69
9059;BME280;4564;42.034;25.834;2024-02-14T12:14:00;100234.34;;;12.32;68.74
9059;BME280;4564;42.034;25.834;2024-02-14T12:16:26;100236.78;;;12.20;69.11
9059;BME280;4564;42.034;25.834;2024-02-14T12:19:02;100233.63;;;12.17;67.07
9059;BME280;4564;42.034;25.834;2024-02-14T12:21:32;100232.41;;;12.19;68.45
9059;BME280;4564;42.034;25.834;2024-02-14T12:24:00;100234.91;;;12.21;68.54
9059;BME280;4564;42.034;25.834;2024-02-14T12:26:28;100231.50;;;12.12;67.76
9059;BME280;4564;42.034;25.834;2024-02-14T12:28:56;100232.16;;;12.14;66.69
9059;BME280;4564;42.034;25.834;2024-02-14T12:31:22;100236.00;;;11.99;68.03
9059;BME280;4564;42.034;25.834;2024-02-14T12:33:49;100221.78;;;11.97;68.04
9059;BME280;4564;42.034;25.834;2024-02-14T12:36:17;100223.72;;;12.03;68.78
9059;BME280;4564;42.034;25.834;2024-02-14T12:38:44;100221.66;;;12.11;67.54
9059;BME280;4564;42.034;25.834;2024-02-14T12:41:11;100237.00;;;12.19;67.31
9059;BME280;4564;42.034;25.834;2024-02-14T12:43:39;100233.88;;;11.94;67.46
9059;BME280;4564;42.034;25.834;2024-02-14T12:46:05;100240.06;;;11.82;67.26
9059;BME280;4564;42.034;25.834;2024-02-14T12:48:32;100234.56;;;11.75;67.96
9059;BME280;4564;42.034;25.834;2024-02-14T12:50:59;100239.34;;;11.73;69.72
9059;BME280;4564;42.034;25.834;2024-02-14T12:53:25;100240.00;;;11.75;70.35
9059;BME280;4564;42.034;25.834;2024-02-14T12:55:52;100243.66;;;11.67;67.34
9059;BME280;4564;42.034;25.834;2024-02-14T12:58:18;100244.00;;;11.58;68.45
9059;BME280;4564;42.034;25.834;2024-02-14T13:00:47;100247.31;;;11.53;69.01
9059;BME280;4564;42.034;25.834;2024-02-14T13:03:13;100246.28;;;11.54;69.42
9059;BME280;4564;42.034;25.834;2024-02-14T13:05:40;100250.22;;;11.52;71.68
9059;BME280;4564;42.034;25.834;2024-02-14T13:08:07;100251.91;;;11.53;71.94
9059;BME280;4564;42.034;25.834;2024-02-14T13:10:34;100249.38;;;11.51;71.03
9059;BME280;4564;42.034;25.834;2024-02-14T13:13:00;100251.13;;;11.59;70.74